createdAt,value
2018-12-13T00:00:01.978Z,0
2018-12-13T00:01:02.112Z,0
2018-12-13T00:02:01.848Z,0
2018-12-13T00:03:01.833Z,0
2018-12-13T00:04:01.858Z,0
2018-12-13T00:05:01.805Z,0
2018-12-13T00:06:01.788Z,0
2018-12-13T00:07:01.771Z,0
2018-12-13T00:08:01.756Z,0
2018-12-13T00:09:01.742Z,0
2018-12-13T00:10:01.729Z,0
2018-12-13T00:11:01.715Z,0
2018-12-13T00:12:01.701Z,0
2018-12-13T00:13:01.684Z,0
2018-12-13T00:14:01.673Z,0
2018-12-13T00:15:01.664Z,0
2018-12-13T00:16:01.643Z,0
2018-12-13T00:17:01.631Z,0
2018-12-13T00:18:01.618Z,0
2018-12-13T00:19:01.600Z,0
2018-12-13T00:20:01.584Z,0
2018-12-13T00:21:01.569Z,0
2018-12-13T00:22:01.556Z,0
2018-12-13T00:23:01.542Z,0
2018-12-13T00:24:01.523Z,0
2018-12-13T00:25:01.512Z,0
2018-12-13T00:26:01.503Z,0
2018-12-13T00:27:01.480Z,0
2018-12-13T00:28:01.468Z,0
2018-12-13T00:29:01.453Z,0
2018-12-13T00:30:01.439Z,0
2018-12-13T00:31:01.430Z,0
2018-12-13T00:32:01.669Z,0
2018-12-13T00:33:01.394Z,0
2018-12-13T00:34:01.379Z,0
2018-12-13T00:35:01.369Z,0
2018-12-13T00:36:01.354Z,0
2018-12-13T00:37:01.341Z,0
2018-12-13T00:38:01.329Z,0
2018-12-13T00:39:01.307Z,0
2018-12-13T00:40:01.287Z,0
2018-12-13T00:41:01.278Z,0
2018-12-13T00:42:01.265Z,0
2018-12-13T00:43:01.294Z,0
2018-12-13T00:44:01.230Z,0
2018-12-13T00:45:01.218Z,0
2018-12-13T00:46:01.198Z,0
2018-12-13T00:47:01.206Z,0
2018-12-13T00:48:01.174Z,0
2018-12-13T00:49:01.158Z,0
2018-12-13T00:50:01.143Z,0
2018-12-13T00:51:00.898Z,0
2018-12-13T00:52:01.122Z,0
2018-12-13T00:53:01.101Z,0
2018-12-13T00:54:01.102Z,0
2018-12-13T00:55:01.074Z,0
2018-12-13T00:56:01.058Z,0
2018-12-13T00:57:01.039Z,0
2018-12-13T00:58:01.032Z,0
2018-12-13T00:59:01.008Z,0
2018-12-13T01:00:00.995Z,0
2018-12-13T01:01:00.993Z,0
2018-12-13T01:02:00.969Z,0
2018-12-13T01:03:01.264Z,0
2018-12-13T01:04:00.939Z,0
2018-12-13T01:05:00.918Z,0
2018-12-13T01:06:00.910Z,0
2018-12-13T01:07:00.898Z,0
2018-12-13T01:08:00.882Z,0
2018-12-13T01:09:00.863Z,0
2018-12-13T01:10:00.861Z,0
2018-12-13T01:11:00.893Z,0
2018-12-13T01:12:00.832Z,0
2018-12-13T01:13:00.817Z,0
2018-12-13T01:14:00.791Z,0
2018-12-13T01:15:00.842Z,0
2018-12-13T01:16:00.768Z,0
2018-12-13T01:17:00.759Z,0
2018-12-13T01:18:00.738Z,0
2018-12-13T01:19:00.731Z,0
2018-12-13T01:20:00.708Z,0
2018-12-13T01:21:00.688Z,0
2018-12-13T01:22:00.673Z,0
2018-12-13T01:23:00.660Z,0
2018-12-13T01:24:00.695Z,0
2018-12-13T01:25:00.643Z,0
2018-12-13T01:26:00.624Z,0
2018-12-13T01:27:00.601Z,0
2018-12-13T01:28:00.602Z,0
2018-12-13T01:29:00.573Z,0
2018-12-13T01:30:00.562Z,0
2018-12-13T01:31:00.544Z,0
2018-12-13T01:32:00.527Z,0
2018-12-13T01:33:00.512Z,0
2018-12-13T01:34:00.501Z,0
2018-12-13T01:35:00.482Z,0
2018-12-13T01:36:00.475Z,0
2018-12-13T01:37:00.455Z,0
2018-12-13T01:38:00.439Z,0
2018-12-13T01:39:00.436Z,0
2018-12-13T01:40:00.415Z,0
2018-12-13T01:41:00.397Z,0
2018-12-13T01:42:00.380Z,0
2018-12-13T01:43:00.371Z,0
2018-12-13T01:44:00.351Z,0
2018-12-13T01:45:00.340Z,0
2018-12-13T01:46:00.326Z,0
2018-12-13T01:47:00.317Z,0
2018-12-13T01:48:00.299Z,0
2018-12-13T01:49:00.280Z,0
2018-12-13T01:50:00.267Z,0
2018-12-13T01:51:00.251Z,0
2018-12-13T01:52:00.239Z,0
2018-12-13T01:53:00.224Z,0
2018-12-13T01:54:00.212Z,0
2018-12-13T01:55:00.191Z,0
2018-12-13T01:56:00.179Z,0
2018-12-13T01:57:00.165Z,0
2018-12-13T01:58:01.173Z,0
2018-12-13T01:59:00.133Z,0
2018-12-13T02:00:00.119Z,0
2018-12-13T02:01:00.115Z,0
2018-12-13T02:02:00.089Z,0
2018-12-13T02:03:00.077Z,0
2018-12-13T02:04:00.073Z,0
2018-12-13T02:05:00.057Z,0
2018-12-13T02:06:00.285Z,0
2018-12-13T02:07:05.894Z,0
2018-12-13T02:08:00.013Z,0
2018-12-13T02:08:59.992Z,0
2018-12-13T02:09:59.977Z,0
2018-12-13T02:10:59.957Z,0
2018-12-13T02:11:59.944Z,0
2018-12-13T02:12:59.980Z,0
2018-12-13T02:13:59.915Z,0
2018-12-13T02:14:59.902Z,0
2018-12-13T02:15:59.894Z,0
2018-12-13T02:16:59.877Z,0
2018-12-13T02:17:59.857Z,0
2018-12-13T02:18:59.844Z,0
2018-12-13T02:19:59.832Z,0
2018-12-13T02:20:59.818Z,0
2018-12-13T02:21:59.839Z,0
2018-12-13T02:22:59.790Z,0
2018-12-13T02:23:59.780Z,0
2018-12-13T02:24:59.759Z,0
2018-12-13T02:25:59.747Z,0
2018-12-13T02:26:59.731Z,0
2018-12-13T02:27:59.715Z,0
2018-12-13T02:28:59.710Z,0
2018-12-13T02:29:59.683Z,0
2018-12-13T02:30:59.674Z,0
2018-12-13T02:31:59.663Z,0
2018-12-13T02:32:59.660Z,0
2018-12-13T02:33:59.708Z,0
2018-12-13T02:34:59.637Z,0
2018-12-13T02:35:59.597Z,0
2018-12-13T02:37:05.847Z,0
2018-12-13T02:37:59.589Z,0
2018-12-13T02:38:59.557Z,0
2018-12-13T02:39:59.548Z,0
2018-12-13T02:40:59.541Z,0
2018-12-13T02:41:59.521Z,0
2018-12-13T02:42:59.509Z,0
2018-12-13T02:43:59.497Z,0
2018-12-13T02:44:59.480Z,0
2018-12-13T02:45:59.467Z,0
2018-12-13T02:46:59.453Z,0
2018-12-13T02:47:59.449Z,0
2018-12-13T02:48:59.417Z,0
2018-12-13T02:49:59.412Z,0
2018-12-13T02:50:59.393Z,0
2018-12-13T02:51:59.377Z,0
2018-12-13T02:52:59.360Z,0
2018-12-13T02:53:59.359Z,0
2018-12-13T02:54:59.337Z,0
2018-12-13T02:55:59.332Z,0
2018-12-13T02:56:59.305Z,0
2018-12-13T02:57:59.289Z,0
2018-12-13T02:58:59.282Z,0
2018-12-13T02:59:59.268Z,0
2018-12-13T03:00:59.247Z,0
2018-12-13T03:01:59.236Z,0
2018-12-13T03:02:59.218Z,0
2018-12-13T03:03:59.204Z,0
2018-12-13T03:04:59.190Z,0
2018-12-13T03:05:59.177Z,0
2018-12-13T03:06:59.173Z,0
2018-12-13T03:07:59.417Z,0
2018-12-13T03:08:59.141Z,0
2018-12-13T03:09:59.120Z,0
2018-12-13T03:10:59.109Z,0
2018-12-13T03:11:58.891Z,0
2018-12-13T03:12:59.077Z,0
2018-12-13T03:13:59.074Z,0
2018-12-13T03:14:59.049Z,0
2018-12-13T03:15:59.038Z,0
2018-12-13T03:16:59.019Z,0
2018-12-13T03:17:59.010Z,0
2018-12-13T03:18:58.989Z,0
2018-12-13T03:19:58.981Z,0
2018-12-13T03:20:58.971Z,0
2018-12-13T03:21:58.953Z,0
2018-12-13T03:22:58.948Z,0
2018-12-13T03:23:58.921Z,0
2018-12-13T03:24:58.903Z,0
2018-12-13T03:25:58.889Z,0
2018-12-13T03:26:58.882Z,0
2018-12-13T03:27:58.867Z,0
2018-12-13T03:28:58.853Z,0
2018-12-13T03:29:58.833Z,0
2018-12-13T03:30:58.864Z,0
2018-12-13T03:31:58.817Z,0
2018-12-13T03:32:58.800Z,0
2018-12-13T03:33:58.779Z,0
2018-12-13T03:34:58.773Z,0
2018-12-13T03:35:58.756Z,0
2018-12-13T03:36:58.739Z,0
2018-12-13T03:37:58.481Z,0
2018-12-13T03:38:59.005Z,0
2018-12-13T03:39:58.694Z,0
2018-12-13T03:40:58.681Z,0
2018-12-13T03:41:58.662Z,0
2018-12-13T03:42:58.654Z,0
2018-12-13T03:43:58.642Z,0
2018-12-13T03:44:58.624Z,0
2018-12-13T03:45:58.607Z,0
2018-12-13T03:46:58.600Z,0
2018-12-13T03:47:58.575Z,0
2018-12-13T03:48:58.564Z,0
2018-12-13T03:49:58.555Z,0
2018-12-13T03:50:58.540Z,0
2018-12-13T03:51:58.519Z,0
2018-12-13T03:52:58.503Z,0
2018-12-13T03:53:58.249Z,0
2018-12-13T03:54:58.481Z,0
2018-12-13T03:55:58.225Z,0
2018-12-13T03:56:58.448Z,0
2018-12-13T03:57:58.432Z,0
2018-12-13T03:58:58.424Z,0
2018-12-13T03:59:58.400Z,0
2018-12-13T04:00:58.384Z,0
2018-12-13T04:01:58.398Z,0
2018-12-13T04:02:58.361Z,0
2018-12-13T04:03:58.347Z,0
2018-12-13T04:04:58.327Z,0
2018-12-13T04:05:58.318Z,0
2018-12-13T04:06:58.297Z,0
2018-12-13T04:07:58.286Z,0
2018-12-13T04:08:58.281Z,0
2018-12-13T04:09:58.261Z,0
2018-12-13T04:10:58.293Z,0
2018-12-13T04:11:58.227Z,0
2018-12-13T04:12:58.213Z,0
2018-12-13T04:13:58.209Z,0
2018-12-13T04:14:58.205Z,0
2018-12-13T04:15:58.244Z,0
2018-12-13T04:16:58.174Z,0
2018-12-13T04:17:58.144Z,0
2018-12-13T04:18:58.144Z,0
2018-12-13T04:19:58.135Z,0
2018-12-13T04:20:58.112Z,0
2018-12-13T04:21:58.093Z,0
2018-12-13T04:22:58.075Z,0
2018-12-13T04:23:58.123Z,0
2018-12-13T04:24:58.042Z,0
2018-12-13T04:25:58.030Z,0
2018-12-13T04:26:57.769Z,0
2018-12-13T04:27:58.001Z,0
2018-12-13T04:28:57.987Z,0
2018-12-13T04:29:57.992Z,0
2018-12-13T04:30:57.952Z,0
2018-12-13T04:31:57.941Z,0
2018-12-13T04:32:57.929Z,0
2018-12-13T04:33:57.919Z,0
2018-12-13T04:34:57.912Z,0
2018-12-13T04:35:57.645Z,0
2018-12-13T04:36:57.875Z,0
2018-12-13T04:37:57.854Z,0
2018-12-13T04:38:57.853Z,0
2018-12-13T04:39:57.825Z,0
2018-12-13T04:40:57.826Z,0
2018-12-13T04:41:57.794Z,0
2018-12-13T04:42:57.781Z,0
2018-12-13T04:43:57.777Z,0
2018-12-13T04:44:57.518Z,0
2018-12-13T04:45:57.746Z,0
2018-12-13T04:46:57.488Z,0
2018-12-13T04:47:57.714Z,0
2018-12-13T04:48:57.698Z,0
2018-12-13T04:49:59.158Z,0
2018-12-13T04:50:57.672Z,0
2018-12-13T04:51:57.660Z,0
2018-12-13T04:52:57.647Z,0
2018-12-13T04:53:57.637Z,0
2018-12-13T04:54:57.608Z,0
2018-12-13T04:55:57.598Z,0
2018-12-13T04:56:57.586Z,0
2018-12-13T04:57:57.568Z,0
2018-12-13T04:58:57.566Z,0
2018-12-13T04:59:57.547Z,0
2018-12-13T05:00:57.527Z,0
2018-12-13T05:01:57.519Z,0
2018-12-13T05:02:57.498Z,0
2018-12-13T05:03:57.492Z,0
2018-12-13T05:04:57.469Z,0
2018-12-13T05:05:57.459Z,0
2018-12-13T05:06:57.448Z,0
2018-12-13T05:07:57.431Z,0
2018-12-13T05:08:57.414Z,0
2018-12-13T05:09:57.409Z,0
2018-12-13T05:10:57.388Z,0
2018-12-13T05:11:57.366Z,0
2018-12-13T05:12:57.608Z,0
2018-12-13T05:13:57.339Z,0
2018-12-13T05:14:57.330Z,0
2018-12-13T05:15:57.315Z,0
2018-12-13T05:16:57.303Z,0
2018-12-13T05:17:57.289Z,0
2018-12-13T05:18:57.275Z,0
2018-12-13T05:19:57.257Z,0
2018-12-13T05:20:57.245Z,0
2018-12-13T05:21:57.234Z,0
2018-12-13T05:22:57.219Z,0
2018-12-13T05:23:57.203Z,0
2018-12-13T05:24:57.185Z,0
2018-12-13T05:25:57.174Z,0
2018-12-13T05:26:57.162Z,0
2018-12-13T05:27:57.149Z,0
2018-12-13T05:28:57.139Z,0
2018-12-13T05:29:57.115Z,0
2018-12-13T05:30:57.110Z,0
2018-12-13T05:31:57.089Z,0
2018-12-13T05:32:57.072Z,0
2018-12-13T05:33:57.062Z,20
2018-12-13T05:34:57.044Z,32
2018-12-13T05:35:57.040Z,40
2018-12-13T05:36:57.021Z,36
2018-12-13T05:37:57.007Z,36
2018-12-13T05:38:56.983Z,36
2018-12-13T05:39:56.973Z,36
2018-12-13T05:40:56.961Z,36
2018-12-13T05:41:56.942Z,40
2018-12-13T05:42:56.944Z,40
2018-12-13T05:43:57.165Z,0
2018-12-13T05:44:56.899Z,0
2018-12-13T05:45:56.882Z,0
2018-12-13T05:46:56.875Z,0
2018-12-13T05:47:56.868Z,0
2018-12-13T05:48:57.016Z,0
2018-12-13T05:49:56.834Z,0
2018-12-13T05:50:56.817Z,0
2018-12-13T05:51:56.814Z,0
2018-12-13T05:52:56.785Z,0
2018-12-13T05:53:56.777Z,0
2018-12-13T05:54:56.764Z,0
2018-12-13T05:55:56.744Z,0
2018-12-13T05:56:56.727Z,0
2018-12-13T05:57:56.480Z,0
2018-12-13T05:58:56.702Z,0
2018-12-13T05:59:56.690Z,0
2018-12-13T06:00:56.852Z,0
2018-12-13T06:01:56.658Z,0
2018-12-13T06:02:56.640Z,0
2018-12-13T06:03:56.644Z,0
2018-12-13T06:04:56.615Z,0
2018-12-13T06:05:56.641Z,0
2018-12-13T06:06:56.588Z,0
2018-12-13T06:08:02.059Z,0
2018-12-13T06:08:56.564Z,0
2018-12-13T06:09:56.541Z,0
2018-12-13T06:10:56.529Z,0
2018-12-13T06:11:56.519Z,0
2018-12-13T06:12:56.498Z,0
2018-12-13T06:13:56.486Z,0
2018-12-13T06:14:56.724Z,0
2018-12-13T06:15:56.454Z,0
2018-12-13T06:16:56.441Z,0
2018-12-13T06:17:56.436Z,0
2018-12-13T06:18:56.450Z,0
2018-12-13T06:19:56.398Z,0
2018-12-13T06:20:56.389Z,0
2018-12-13T06:21:56.373Z,0
2018-12-13T06:22:56.364Z,0
2018-12-13T06:23:56.345Z,0
2018-12-13T06:24:56.330Z,0
2018-12-13T06:25:57.670Z,0
2018-12-13T06:26:56.313Z,0
2018-12-13T06:27:56.330Z,0
2018-12-13T06:28:56.281Z,0
2018-12-13T06:30:07.201Z,0
2018-12-13T06:30:56.009Z,0
2018-12-13T06:31:55.993Z,4
2018-12-13T06:32:56.216Z,4
2018-12-13T06:33:56.206Z,0
2018-12-13T06:34:56.189Z,4
2018-12-13T06:35:56.171Z,4
2018-12-13T06:36:56.167Z,0
2018-12-13T06:38:01.150Z,4
2018-12-13T06:38:56.129Z,4
2018-12-13T06:39:56.620Z,8
2018-12-13T06:40:56.111Z,4
2018-12-13T06:41:56.083Z,4
2018-12-13T06:42:56.079Z,4
2018-12-13T06:43:57.123Z,8
2018-12-13T06:44:56.044Z,8
2018-12-13T06:45:56.031Z,8
2018-12-13T06:46:56.018Z,8
2018-12-13T06:47:56.014Z,16
2018-12-13T06:48:55.992Z,20
2018-12-13T06:49:55.974Z,20
2018-12-13T06:50:55.958Z,28
2018-12-13T06:51:55.949Z,28
2018-12-13T06:52:55.932Z,32
2018-12-13T06:53:55.923Z,40
2018-12-13T06:54:55.903Z,48
2018-12-13T06:55:55.889Z,64
2018-12-13T06:56:55.880Z,72
2018-12-13T06:57:55.859Z,84
2018-12-13T06:58:55.859Z,92
2018-12-13T06:59:55.875Z,104
2018-12-13T07:00:55.823Z,116
2018-12-13T07:01:55.804Z,128
2018-12-13T07:02:55.793Z,160
2018-12-13T07:03:55.536Z,188
2018-12-13T07:04:55.762Z,164
2018-12-13T07:05:55.756Z,168
2018-12-13T07:06:55.732Z,152
2018-12-13T07:07:55.723Z,184
2018-12-13T07:08:55.721Z,212
2018-12-13T07:09:55.453Z,168
2018-12-13T07:10:55.678Z,104
2018-12-13T07:11:55.665Z,88
2018-12-13T07:12:55.405Z,112
2018-12-13T07:13:55.680Z,184
2018-12-13T07:14:55.625Z,244
2018-12-13T07:15:55.609Z,200
2018-12-13T07:16:55.843Z,148
2018-12-13T07:17:55.583Z,148
2018-12-13T07:18:55.566Z,148
2018-12-13T07:19:55.550Z,152
2018-12-13T07:20:55.539Z,136
2018-12-13T07:21:55.525Z,140
2018-12-13T07:22:55.509Z,140
2018-12-13T07:23:55.495Z,172
2018-12-13T07:24:55.484Z,212
2018-12-13T07:25:55.474Z,324
2018-12-13T07:26:55.451Z,388
2018-12-13T07:27:55.441Z,372
2018-12-13T07:28:55.426Z,344
2018-12-13T07:29:55.413Z,340
2018-12-13T07:30:55.409Z,348
2018-12-13T07:31:55.383Z,364
2018-12-13T07:32:55.379Z,344
2018-12-13T07:33:55.352Z,344
2018-12-13T07:35:01.085Z,344
2018-12-13T07:35:55.327Z,328
2018-12-13T07:36:55.345Z,360
2018-12-13T07:37:55.298Z,376
2018-12-13T07:38:55.286Z,364
2018-12-13T07:39:55.270Z,380
2018-12-13T07:40:55.257Z,468
2018-12-13T07:41:55.248Z,568
2018-12-13T07:42:55.228Z,596
2018-12-13T07:43:55.220Z,668
2018-12-13T07:44:55.197Z,768
2018-12-13T07:45:55.187Z,888
2018-12-13T07:46:55.174Z,832
2018-12-13T07:47:55.157Z,836
2018-12-13T07:49:01.151Z,844
2018-12-13T07:49:55.146Z,812
2018-12-13T07:50:55.114Z,844
2018-12-13T07:51:55.100Z,888
2018-12-13T07:52:55.093Z,1028
2018-12-13T07:53:55.071Z,1016
2018-12-13T07:54:55.126Z,1080
2018-12-13T07:55:55.043Z,1132
2018-12-13T07:56:55.029Z,1092
2018-12-13T07:57:55.015Z,1148
2018-12-13T07:58:55.002Z,1292
2018-12-13T07:59:54.984Z,1456
2018-12-13T08:00:54.977Z,1368
2018-12-13T08:01:54.960Z,1284
2018-12-13T08:02:54.945Z,1292
2018-12-13T08:03:54.929Z,1352
2018-12-13T08:04:54.914Z,1412
2018-12-13T08:05:54.908Z,1600
2018-12-13T08:06:54.897Z,1720
2018-12-13T08:07:54.886Z,1676
2018-12-13T08:08:54.860Z,1708
2018-12-13T08:09:54.844Z,1772
2018-12-13T08:10:54.840Z,1848
2018-12-13T08:11:54.818Z,1960
2018-12-13T08:12:54.801Z,2044
2018-12-13T08:13:54.793Z,2020
2018-12-13T08:14:54.774Z,1960
2018-12-13T08:15:54.806Z,1876
2018-12-13T08:16:54.760Z,1800
2018-12-13T08:17:54.732Z,1796
2018-12-13T08:18:54.720Z,1788
2018-12-13T08:19:54.956Z,1824
2018-12-13T08:20:54.690Z,1956
2018-12-13T08:21:54.674Z,2064
2018-12-13T08:22:54.713Z,2124
2018-12-13T08:23:54.651Z,2132
2018-12-13T08:24:54.639Z,2160
2018-12-13T08:25:54.620Z,2144
2018-12-13T08:26:54.607Z,2176
2018-12-13T08:27:54.590Z,2240
2018-12-13T08:28:54.576Z,2244
2018-12-13T08:29:54.564Z,2256
2018-12-13T08:30:54.549Z,2296
2018-12-13T08:31:54.535Z,2264
2018-12-13T08:32:54.527Z,2128
2018-12-13T08:33:54.516Z,1988
2018-12-13T08:34:54.496Z,1900
2018-12-13T08:35:54.485Z,1968
2018-12-13T08:36:54.476Z,1984
2018-12-13T08:37:54.453Z,1784
2018-12-13T08:38:54.442Z,1708
2018-12-13T08:39:54.186Z,1728
2018-12-13T08:40:54.423Z,1784
2018-12-13T08:41:54.407Z,1756
2018-12-13T08:42:54.387Z,1680
2018-12-13T08:43:54.393Z,1516
2018-12-13T08:44:54.357Z,1408
2018-12-13T08:45:54.102Z,1416
2018-12-13T08:46:54.337Z,1580
2018-12-13T08:47:54.318Z,1940
2018-12-13T08:48:54.304Z,2028
2018-12-13T08:49:54.289Z,1960
2018-12-13T08:50:54.525Z,2028
2018-12-13T08:51:54.264Z,1916
2018-12-13T08:52:54.255Z,1880
2018-12-13T08:53:54.235Z,1916
2018-12-13T08:54:54.223Z,2196
2018-12-13T08:55:54.209Z,2512
2018-12-13T08:56:54.193Z,2636
2018-12-13T08:57:54.183Z,2564
2018-12-13T08:58:54.171Z,2400
2018-12-13T08:59:54.153Z,2140
2018-12-13T09:00:54.143Z,2180
2018-12-13T09:01:55.259Z,2088
2018-12-13T09:02:54.118Z,2012
2018-12-13T09:03:54.099Z,2176
2018-12-13T09:04:54.089Z,2072
2018-12-13T09:05:54.069Z,2052
2018-12-13T09:06:54.055Z,2196
2018-12-13T09:07:54.046Z,2184
2018-12-13T09:08:54.026Z,2088
2018-12-13T09:09:54.017Z,2516
2018-12-13T09:10:53.998Z,2472
2018-12-13T09:11:53.987Z,2324
2018-12-13T09:12:53.984Z,2164
2018-12-13T09:13:53.966Z,2008
2018-12-13T09:14:53.952Z,1904
2018-12-13T09:15:53.934Z,1812
2018-12-13T09:16:53.921Z,1936
2018-12-13T09:17:53.903Z,1928
2018-12-13T09:18:53.900Z,2136
2018-12-13T09:19:53.893Z,2168
2018-12-13T09:20:53.912Z,1908
2018-12-13T09:21:53.847Z,1968
2018-12-13T09:22:53.837Z,1996
2018-12-13T09:23:53.830Z,2024
2018-12-13T09:24:53.810Z,2084
2018-12-13T09:25:53.801Z,2048
2018-12-13T09:26:53.785Z,1960
2018-12-13T09:27:53.774Z,1940
2018-12-13T09:28:53.764Z,1900
2018-12-13T09:29:53.738Z,1864
2018-12-13T09:30:53.726Z,2016
2018-12-13T09:31:53.714Z,1932
2018-12-13T09:32:53.702Z,1996
2018-12-13T09:33:53.695Z,1980
2018-12-13T09:34:53.674Z,2416
2018-12-13T09:35:53.659Z,2536
2018-12-13T09:36:53.650Z,2312
2018-12-13T09:37:54.824Z,2276
2018-12-13T09:38:53.616Z,2324
2018-12-13T09:39:53.606Z,2476
2018-12-13T09:40:53.593Z,2444
2018-12-13T09:41:53.580Z,2844
2018-12-13T09:42:53.568Z,3012
2018-12-13T09:43:53.550Z,3244
2018-12-13T09:44:53.538Z,3292
2018-12-13T09:45:53.524Z,2804
2018-12-13T09:46:53.521Z,3056
2018-12-13T09:47:53.495Z,3056
2018-12-13T09:48:54.182Z,3232
2018-12-13T09:49:53.466Z,2960
2018-12-13T09:50:53.452Z,2928
2018-12-13T09:51:53.438Z,2960
2018-12-13T09:52:53.679Z,3132
2018-12-13T09:53:53.421Z,3168
2018-12-13T09:54:53.404Z,3316
2018-12-13T09:55:53.388Z,2892
2018-12-13T09:56:53.370Z,2596
2018-12-13T09:57:53.357Z,2684
2018-12-13T09:58:53.346Z,2740
2018-12-13T09:59:53.337Z,3472
2018-12-13T10:00:53.320Z,2840
2018-12-13T10:01:53.305Z,2720
2018-12-13T10:02:53.292Z,2876
2018-12-13T10:03:53.279Z,3092
2018-12-13T10:04:53.318Z,2852
2018-12-13T10:05:53.251Z,2728
2018-12-13T10:06:53.236Z,2796
2018-12-13T10:07:53.226Z,3060
2018-12-13T10:08:53.595Z,3228
2018-12-13T10:09:53.200Z,3276
2018-12-13T10:10:53.198Z,3272
2018-12-13T10:11:53.169Z,3152
2018-12-13T10:12:53.154Z,2980
2018-12-13T10:13:53.149Z,3240
2018-12-13T10:14:53.129Z,3704
2018-12-13T10:15:53.117Z,4028
2018-12-13T10:16:53.105Z,3540
2018-12-13T10:17:53.096Z,3004
2018-12-13T10:18:53.081Z,2780
2018-12-13T10:19:53.062Z,3184
2018-12-13T10:20:53.050Z,3780
2018-12-13T10:21:53.040Z,3600
2018-12-13T10:22:53.027Z,3212
2018-12-13T10:23:53.011Z,3148
2018-12-13T10:24:53.001Z,3052
2018-12-13T10:25:59.351Z,2868
2018-12-13T10:26:52.969Z,2584
2018-12-13T10:27:52.975Z,2692
2018-12-13T10:28:52.705Z,3172
2018-12-13T10:29:52.931Z,3236
2018-12-13T10:30:52.923Z,3040
2018-12-13T10:31:52.905Z,2796
2018-12-13T10:32:52.896Z,2856
2018-12-13T10:33:52.885Z,2840
2018-12-13T10:34:52.874Z,2552
2018-12-13T10:35:52.857Z,2316
2018-12-13T10:36:52.843Z,2356
2018-12-13T10:37:52.812Z,2392
2018-12-13T10:38:57.875Z,2712
2018-12-13T10:39:52.787Z,2672
2018-12-13T10:40:52.776Z,2488
2018-12-13T10:41:52.766Z,2356
2018-12-13T10:42:52.741Z,2308
2018-12-13T10:43:52.732Z,2300
2018-12-13T10:44:52.723Z,2264
2018-12-13T10:45:52.706Z,2372
2018-12-13T10:46:54.058Z,2280
2018-12-13T10:47:52.681Z,1896
2018-12-13T10:48:52.666Z,1532
2018-12-13T10:49:52.648Z,1368
2018-12-13T10:50:52.642Z,1312
2018-12-13T10:51:52.624Z,1324
2018-12-13T10:52:52.632Z,1460
2018-12-13T10:53:52.616Z,1536
2018-12-13T10:54:52.599Z,2140
2018-12-13T10:55:52.585Z,1956
2018-12-13T10:56:52.572Z,1816
2018-12-13T10:57:52.567Z,1912
2018-12-13T10:58:52.546Z,1672
2018-12-13T10:59:52.535Z,1640
2018-12-13T11:00:52.529Z,1368
2018-12-13T11:01:52.506Z,1532
2018-12-13T11:02:52.500Z,1688
2018-12-13T11:03:52.479Z,2024
2018-12-13T11:04:52.470Z,2180
2018-12-13T11:05:52.471Z,2220
2018-12-13T11:06:52.442Z,2596
2018-12-13T11:07:52.426Z,3172
2018-12-13T11:08:52.412Z,3932
2018-12-13T11:09:52.402Z,4424
2018-12-13T11:10:52.385Z,4764
2018-12-13T11:11:52.374Z,4228
2018-12-13T11:12:52.131Z,3816
2018-12-13T11:13:52.350Z,3064
2018-12-13T11:14:52.332Z,2796
2018-12-13T11:15:52.321Z,2316
2018-12-13T11:16:52.320Z,2244
2018-12-13T11:17:52.291Z,2136
2018-12-13T11:18:52.278Z,1816
2018-12-13T11:19:52.265Z,1760
2018-12-13T11:20:52.252Z,1924
2018-12-13T11:21:51.996Z,2192
2018-12-13T11:22:52.227Z,2336
2018-12-13T11:23:52.222Z,2536
2018-12-13T11:24:52.202Z,2556
2018-12-13T11:25:52.186Z,2280
2018-12-13T11:26:52.425Z,2088
2018-12-13T11:27:52.156Z,1980
2018-12-13T11:28:52.141Z,2032
2018-12-13T11:29:52.149Z,2176
2018-12-13T11:30:52.160Z,2092
2018-12-13T11:31:52.400Z,2332
2018-12-13T11:32:52.094Z,2204
2018-12-13T11:33:52.076Z,2084
2018-12-13T11:34:52.064Z,1776
2018-12-13T11:35:52.046Z,1616
2018-12-13T11:36:52.034Z,1596
2018-12-13T11:37:52.021Z,1592
2018-12-13T11:38:52.008Z,1508
2018-12-13T11:39:52.002Z,1560
2018-12-13T11:40:51.981Z,1940
2018-12-13T11:41:51.967Z,2484
2018-12-13T11:42:51.954Z,2396
2018-12-13T11:43:51.941Z,2352
2018-12-13T11:44:51.945Z,2024
2018-12-13T11:45:51.943Z,1816
2018-12-13T11:46:51.659Z,1756
2018-12-13T11:47:51.886Z,1776
2018-12-13T11:48:51.636Z,1616
2018-12-13T11:49:51.862Z,1460
2018-12-13T11:50:51.603Z,1484
2018-12-13T11:51:51.837Z,1384
2018-12-13T11:52:51.980Z,1284
2018-12-13T11:53:51.803Z,1200
2018-12-13T11:54:51.796Z,1220
2018-12-13T11:55:51.794Z,1244
2018-12-13T11:56:51.763Z,1184
2018-12-13T11:57:52.002Z,1132
2018-12-13T11:58:51.735Z,1104
2018-12-13T11:59:51.723Z,1104
2018-12-13T12:00:51.714Z,1052
2018-12-13T12:01:51.698Z,1084
2018-12-13T12:02:51.682Z,1248
2018-12-13T12:03:51.677Z,1272
2018-12-13T12:04:51.656Z,1436
2018-12-13T12:05:51.643Z,1500
2018-12-13T12:06:51.625Z,1416
2018-12-13T12:07:51.620Z,1336
2018-12-13T12:08:51.364Z,1308
2018-12-13T12:09:51.581Z,1208
2018-12-13T12:10:51.582Z,1252
2018-12-13T12:11:51.557Z,1296
2018-12-13T12:12:51.537Z,1272
2018-12-13T12:13:51.528Z,1268
2018-12-13T12:14:51.520Z,1292
2018-12-13T12:15:51.506Z,1292
2018-12-13T12:16:51.491Z,1272
2018-12-13T12:17:51.475Z,1240
2018-12-13T12:18:51.459Z,1256
2018-12-13T12:19:51.439Z,1268
2018-12-13T12:20:51.436Z,1316
2018-12-13T12:21:51.427Z,1396
2018-12-13T12:22:51.478Z,1356
2018-12-13T12:23:51.391Z,1412
2018-12-13T12:24:51.375Z,1732
2018-12-13T12:25:51.365Z,1900
2018-12-13T12:26:51.345Z,1812
2018-12-13T12:27:51.333Z,1776
2018-12-13T12:28:51.571Z,1896
2018-12-13T12:29:51.312Z,1804
2018-12-13T12:30:51.296Z,1760
2018-12-13T12:31:51.276Z,1928
2018-12-13T12:32:51.258Z,2032
2018-12-13T12:33:51.250Z,1968
2018-12-13T12:34:51.245Z,1668
2018-12-13T12:35:51.221Z,1540
2018-12-13T12:36:51.211Z,1520
2018-12-13T12:37:51.195Z,1360
2018-12-13T12:38:51.180Z,1356
2018-12-13T12:39:51.167Z,1372
2018-12-13T12:40:51.151Z,1296
2018-12-13T12:41:51.139Z,1192
2018-12-13T12:42:51.124Z,1164
2018-12-13T12:43:51.108Z,1100
2018-12-13T12:44:51.097Z,1068
2018-12-13T12:45:51.081Z,1048
2018-12-13T12:46:51.086Z,1016
2018-12-13T12:47:51.057Z,1048
2018-12-13T12:48:51.048Z,1096
2018-12-13T12:49:51.110Z,1088
2018-12-13T12:50:51.026Z,1116
2018-12-13T12:51:51.002Z,1164
2018-12-13T12:52:50.986Z,1180
2018-12-13T12:53:50.970Z,1192
2018-12-13T12:54:50.954Z,1152
2018-12-13T12:55:50.946Z,1088
2018-12-13T12:56:50.931Z,1196
2018-12-13T12:57:50.928Z,1260
2018-12-13T12:58:50.903Z,1152
2018-12-13T12:59:50.885Z,1184
2018-12-13T13:00:50.916Z,1228
2018-12-13T13:01:50.860Z,1276
2018-12-13T13:02:52.373Z,1280
2018-12-13T13:03:50.591Z,1212
2018-12-13T13:04:50.822Z,1212
2018-12-13T13:05:50.811Z,1240
2018-12-13T13:06:50.793Z,1224
2018-12-13T13:07:50.772Z,1204
2018-12-13T13:08:50.762Z,1196
2018-12-13T13:09:50.750Z,1240
2018-12-13T13:10:50.756Z,1492
2018-12-13T13:11:50.721Z,1772
2018-12-13T13:12:50.709Z,2072
2018-12-13T13:13:50.758Z,2684
2018-12-13T13:14:50.685Z,3440
2018-12-13T13:15:50.671Z,3684
2018-12-13T13:16:50.655Z,3732
2018-12-13T13:17:50.646Z,3652
2018-12-13T13:18:50.633Z,3564
2018-12-13T13:19:50.609Z,3504
2018-12-13T13:20:52.270Z,3400
2018-12-13T13:21:50.582Z,3280
2018-12-13T13:22:50.567Z,3120
2018-12-13T13:23:50.559Z,2968
2018-12-13T13:24:50.548Z,2788
2018-12-13T13:25:50.527Z,2652
2018-12-13T13:26:50.519Z,2624
2018-12-13T13:27:50.690Z,2624
2018-12-13T13:28:50.486Z,2648
2018-12-13T13:29:50.479Z,2664
2018-12-13T13:30:50.467Z,2708
2018-12-13T13:31:50.454Z,2756
2018-12-13T13:32:50.433Z,2812
2018-12-13T13:33:50.429Z,2884
2018-12-13T13:34:50.426Z,2900
2018-12-13T13:35:50.399Z,2868
2018-12-13T13:36:50.383Z,2872
2018-12-13T13:37:50.372Z,2836
2018-12-13T13:38:50.419Z,2832
2018-12-13T13:39:50.338Z,2792
2018-12-13T13:40:50.327Z,2720
2018-12-13T13:41:50.316Z,2596
2018-12-13T13:42:50.303Z,2512
2018-12-13T13:43:50.325Z,2476
2018-12-13T13:44:50.273Z,2444
2018-12-13T13:45:50.300Z,2392
2018-12-13T13:46:50.248Z,2336
2018-12-13T13:47:50.237Z,2252
2018-12-13T13:48:50.235Z,2156
2018-12-13T13:49:50.215Z,2080
2018-12-13T13:50:50.194Z,2012
2018-12-13T13:51:50.185Z,1968
2018-12-13T13:52:50.171Z,1892
2018-12-13T13:53:50.161Z,1792
2018-12-13T13:54:50.141Z,1668
2018-12-13T13:55:50.131Z,1552
2018-12-13T13:56:50.118Z,1460
2018-12-13T13:57:50.112Z,1416
2018-12-13T13:58:50.093Z,1360
2018-12-13T13:59:50.087Z,1296
2018-12-13T14:00:50.067Z,1252